Time;durP1;ratioP1;P1;durP2;ratioP2;P2;SDS_P1;SDS_P2;PMS_P1;PMS_P2;Temp;Humidity;BMP_temperature;BMP_pressure;BME280_temperature;BME280_humidity;BME280_pressure;Samples;Min_cycle;Max_cycle;Signal;HPM_P1;HPM_P2
2023/09/18 00:00:14;;;;;;;11.17;7.00;;;;;;;;;;4985451;28;20096;-57
2023/09/18 00:02:40;;;;;;;13.25;7.07;;;;;;;;;;4984345;28;20297;-57
2023/09/18 00:05:05;;;;;;;8.87;7.43;;;;;;;;;;4984547;28;20042;-57
2023/09/18 00:07:30;;;;;;;11.48;7.80;;;;;;;;;;4983734;28;20313;-57
2023/09/18 00:09:56;;;;;;;12.10;7.67;;;;;;;;;;4991662;28;20544;-57
2023/09/18 00:12:21;;;;;;;10.52;8.07;;;;;;;;;;5010016;28;20502;-56
2023/09/18 00:14:49;;;;;;;11.67;8.33;;;;;;;;;;4996812;28;20452;-57
2023/09/18 00:17:16;;;;;;;11.07;8.88;;;;;;;;;;5008316;28;20299;-57
2023/09/18 00:19:41;;;;;;;13.65;8.73;;;;;;;;;;5009269;28;20044;-57
2023/09/18 00:22:07;;;;;;;9.77;8.47;;;;;;;;;;5008282;28;20038;-57
2023/09/18 00:24:32;;;;;;;12.97;9.20;;;;;;;;;;5007635;28;20038;-56
2023/09/18 00:26:57;;;;;;;12.83;9.63;;;;;;;;;;5004850;28;20053;-56
2023/09/18 00:29:22;;;;;;;12.00;10.43;;;;;;;;;;5005033;28;20034;-56
2023/09/18 00:31:48;;;;;;;12.00;10.47;;;;;;;;;;4991145;28;20418;-56
2023/09/18 00:34:13;;;;;;;14.93;11.70;;;;;;;;;;5001801;28;20284;-57
2023/09/18 00:36:38;;;;;;;12.93;10.83;;;;;;;;;;5010495;28;20284;-57
2023/09/18 00:39:03;;;;;;;13.07;11.65;;;;;;;;;;5007320;28;20288;-57
2023/09/18 00:41:29;;;;;;;15.43;11.32;;;;;;;;;;5010177;28;20085;-57
2023/09/18 00:43:54;;;;;;;14.48;11.88;;;;;;;;;;4994021;28;20474;-57
2023/09/18 00:46:19;;;;;;;14.27;10.97;;;;;;;;;;5012975;28;20045;-57
2023/09/18 00:48:45;;;;;;;16.52;12.40;;;;;;;;;;5014751;28;20897;-56
2023/09/18 00:51:10;;;;;;;15.15;11.55;;;;;;;;;;5008091;28;20046;-57
2023/09/18 00:53:35;;;;;;;15.20;12.30;;;;;;;;;;5004811;28;20117;-57
2023/09/18 00:56:00;;;;;;;12.53;11.20;;;;;;;;;;5018578;28;20076;-57
2023/09/18 00:58:26;;;;;;;14.07;11.73;;;;;;;;;;5015697;28;20034;-56
2023/09/18 01:00:51;;;;;;;15.25;11.70;;;;;;;;;;5016845;28;20284;-57
2023/09/18 01:03:18;;;;;;;13.43;11.37;;;;;;;;;;5027102;28;20556;-56
2023/09/18 01:05:43;;;;;;;13.20;10.60;;;;;;;;;;5013571;28;20049;-57
2023/09/18 01:08:09;;;;;;;13.00;10.30;;;;;;;;;;5007120;28;20053;-57
2023/09/18 01:10:36;;;;;;;12.80;9.70;;;;;;;;;;5003458;28;20046;-56
2023/09/18 01:13:07;;;;;;;14.07;9.68;;;;;;;;;;5003669;28;20305;-57
2023/09/18 01:15:37;;;;;;;12.85;9.52;;;;;;;;;;5009979;28;20045;-57
2023/09/18 01:18:03;;;;;;;;;;;;;;;;;;5014948;28;20042;-57
2023/09/18 01:20:28;;;;;;;10.75;9.07;;;;;;;;;;5007794;28;20405;-57
2023/09/18 01:22:53;;;;;;;11.13;8.75;;;;;;;;;;5003144;28;20496;-57
2023/09/18 01:25:18;;;;;;;10.87;8.60;;;;;;;;;;5013317;28;20026;-57
2023/09/18 01:27:44;;;;;;;12.90;9.00;;;;;;;;;;5017860;28;20307;-56
2023/09/18 01:30:09;;;;;;;11.45;8.70;;;;;;;;;;5003939;28;20040;-57
2023/09/18 01:32:34;;;;;;;10.82;8.52;;;;;;;;;;5017093;28;20544;-56
2023/09/18 01:35:00;;;;;;;14.10;9.23;;;;;;;;;;4989384;28;20045;-57
2023/09/18 01:37:26;;;;;;;12.55;8.80;;;;;;;;;;5009094;28;20586;-58
2023/09/18 01:39:52;;;;;;;12.90;9.05;;;;;;;;;;5011367;28;20034;-57
2023/09/18 01:42:17;;;;;;;12.02;9.00;;;;;;;;;;5008116;28;20040;-57
2023/09/18 01:44:43;;;;;;;12.00;9.17;;;;;;;;;;5006506;28;20033;-56
2023/09/18 01:47:09;;;;;;;10.68;8.20;;;;;;;;;;5006584;28;20308;-58
2023/09/18 01:49:38;;;;;;;13.32;8.65;;;;;;;;;;5015228;28;20034;-56
2023/09/18 01:52:03;;;;;;;11.13;8.30;;;;;;;;;;5005336;28;20631;-57
2023/09/18 01:54:29;;;;;;;12.73;9.20;;;;;;;;;;5002126;28;20069;-57
2023/09/18 01:56:54;;;;;;;10.43;8.82;;;;;;;;;;5005349;28;20034;-56
2023/09/18 01:59:20;;;;;;;13.60;9.13;;;;;;;;;;5004672;28;20069;-56
2023/09/18 02:01:45;;;;;;;13.55;9.23;;;;;;;;;;5004939;28;20457;-57
2023/09/18 02:04:10;;;;;;;13.07;8.80;;;;;;;;;;5007110;28;20045;-57
2023/09/18 02:06:36;;;;;;;13.43;8.90;;;;;;;;;;5005166;28;20312;-57
2023/09/18 02:09:01;;;;;;;10.75;8.85;;;;;;;;;;5006401;28;20355;-56
2023/09/18 02:11:26;;;;;;;12.43;9.43;;;;;;;;;;5005132;28;20395;-57
2023/09/18 02:13:51;;;;;;;13.90;9.55;;;;;;;;;;5017671;28;20339;-56
2023/09/18 02:16:17;;;;;;;11.63;9.23;;;;;;;;;;5010262;28;20036;-57
2023/09/18 02:18:44;;;;;;;11.67;9.50;;;;;;;;;;5006343;28;20041;-57
2023/09/18 02:21:09;;;;;;;16.60;9.30;;;;;;;;;;5000757;28;20108;-56
2023/09/18 02:23:34;;;;;;;12.67;9.27;;;;;;;;;;5016137;28;20033;-56
2023/09/18 02:25:59;;;;;;;13.73;9.70;;;;;;;;;;5011417;28;20297;-56
2023/09/18 02:28:25;;;;;;;14.35;9.82;;;;;;;;;;5007549;28;20050;-56
2023/09/18 02:30:50;;;;;;;12.25;9.93;;;;;;;;;;5010889;28;20030;-57
2023/09/18 02:33:16;;;;;;;11.23;9.25;;;;;;;;;;5015881;28;20125;-57
2023/09/18 02:35:43;;;;;;;13.03;9.33;;;;;;;;;;4986828;28;20034;-58
2023/09/18 02:38:08;;;;;;;13.93;9.95;;;;;;;;;;5000941;28;20749;-56
2023/09/18 02:40:33;;;;;;;12.43;9.77;;;;;;;;;;5004385;28;20132;-56
2023/09/18 02:42:58;;;;;;;14.37;9.80;;;;;;;;;;5007270;28;20312;-57
2023/09/18 02:45:24;;;;;;;13.07;9.60;;;;;;;;;;5005165;28;20534;-58
2023/09/18 02:47:49;;;;;;;11.95;9.18;;;;;;;;;;4995713;28;20313;-56
2023/09/18 02:50:14;;;;;;;11.47;9.20;;;;;;;;;;5007959;28;20183;-57
2023/09/18 02:52:39;;;;;;;12.73;8.93;;;;;;;;;;5005777;28;20045;-56
2023/09/18 02:55:05;;;;;;;13.10;9.23;;;;;;;;;;5004657;28;20715;-56
2023/09/18 02:57:30;;;;;;;12.85;9.57;;;;;;;;;;5005412;28;20037;-55
2023/09/18 02:59:55;;;;;;;11.20;9.30;;;;;;;;;;5021519;28;20178;-56
2023/09/18 03:02:20;;;;;;;11.93;9.00;;;;;;;;;;5009242;28;20296;-56
2023/09/18 03:04:46;;;;;;;11.67;9.80;;;;;;;;;;5006092;28;20372;-56
2023/09/18 03:07:14;;;;;;;13.07;9.10;;;;;;;;;;5004166;28;20307;-57
2023/09/18 03:09:39;;;;;;;10.93;8.88;;;;;;;;;;5004661;28;20383;-56
2023/09/18 03:12:04;;;;;;;11.37;9.10;;;;;;;;;;5012234;28;20070;-56
2023/09/18 03:14:30;;;;;;;13.63;9.82;;;;;;;;;;5010335;28;20473;-57
2023/09/18 03:16:55;;;;;;;11.77;9.50;;;;;;;;;;5019802;28;20064;-56
2023/09/18 03:19:22;;;;;;;11.63;9.52;;;;;;;;;;5004901;28;20339;-57
2023/09/18 03:21:47;;;;;;;11.93;9.63;;;;;;;;;;5003859;28;20128;-57
2023/09/18 03:24:12;;;;;;;13.57;9.07;;;;;;;;;;5020365;28;20117;-56
2023/09/18 03:26:38;;;;;;;12.50;9.40;;;;;;;;;;5021797;28;20041;-56
2023/09/18 03:29:03;;;;;;;12.57;9.33;;;;;;;;;;5008130;28;20307;-55
2023/09/18 03:31:29;;;;;;;11.32;9.55;;;;;;;;;;5005223;28;20311;-56
2023/09/18 03:33:54;;;;;;;12.00;9.43;;;;;;;;;;5023182;28;20356;-56
2023/09/18 03:36:21;;;;;;;12.50;9.73;;;;;;;;;;5007928;28;20569;-56
2023/09/18 03:38:46;;;;;;;13.13;9.48;;;;;;;;;;5009515;28;20320;-57
2023/09/18 03:41:11;;;;;;;12.27;9.10;;;;;;;;;;5001625;28;20556;-56
2023/09/18 03:43:36;;;;;;;10.50;9.27;;;;;;;;;;5000029;28;20483;-56
2023/09/18 03:46:05;;;;;;;13.77;9.90;;;;;;;;;;4994436;28;20277;-56
2023/09/18 03:48:36;;;;;;;12.98;9.35;;;;;;;;;;5001058;28;20408;-57
2023/09/18 03:51:01;;;;;;;12.57;9.75;;;;;;;;;;5005231;28;20072;-56
2023/09/18 03:53:26;;;;;;;14.40;9.57;;;;;;;;;;5009458;28;20041;-56
2023/09/18 03:55:52;;;;;;;11.35;9.23;;;;;;;;;;5008837;28;20490;-56
2023/09/18 03:58:17;;;;;;;12.98;9.65;;;;;;;;;;5014896;28;20502;-56
2023/09/18 04:00:43;;;;;;;12.27;9.57;;;;;;;;;;4997948;28;20410;-58
2023/09/18 04:03:09;;;;;;;12.73;9.77;;;;;;;;;;4995819;28;20328;-56
2023/09/18 04:05:34;;;;;;;12.90;9.68;;;;;;;;;;5018158;28;20107;-55
2023/09/18 04:07:59;;;;;;;13.70;9.95;;;;;;;;;;5007889;28;20872;-56
2023/09/18 04:10:24;;;;;;;13.27;10.13;;;;;;;;;;4987491;28;20064;-56
2023/09/18 04:12:52;;;;;;;11.10;9.83;;;;;;;;;;5007645;28;20030;-56
2023/09/18 04:15:18;;;;;;;11.27;9.80;;;;;;;;;;5007920;28;20717;-56
2023/09/18 04:17:44;;;;;;;12.15;9.65;;;;;;;;;;5001261;28;20121;-56
2023/09/18 04:20:10;;;;;;;12.05;10.18;;;;;;;;;;5008627;28;20532;-56
2023/09/18 04:22:35;;;;;;;12.52;10.60;;;;;;;;;;5005844;28;20021;-56
2023/09/18 04:25:00;;;;;;;12.63;10.87;;;;;;;;;;5026840;28;20023;-57
2023/09/18 04:27:25;;;;;;;13.07;10.32;;;;;;;;;;5010310;28;20846;-57
2023/09/18 04:29:50;;;;;;;15.93;10.63;;;;;;;;;;5016184;28;20075;-56
2023/09/18 04:32:16;;;;;;;13.13;11.00;;;;;;;;;;5013581;28;20276;-56
2023/09/18 04:34:42;;;;;;;15.07;11.93;;;;;;;;;;5011619;28;20279;-56
2023/09/18 04:37:07;;;;;;;14.95;10.60;;;;;;;;;;5017922;28;20026;-56
2023/09/18 04:39:33;;;;;;;16.98;11.65;;;;;;;;;;5011390;28;20536;-56
2023/09/18 04:42:00;;;;;;;13.98;12.15;;;;;;;;;;5007159;28;20030;-56
2023/09/18 04:44:25;;;;;;;14.23;11.38;;;;;;;;;;5016272;28;20486;-57
2023/09/18 04:46:51;;;;;;;14.60;12.10;;;;;;;;;;4989405;28;20046;-56
2023/09/18 04:49:16;;;;;;;16.77;12.00;;;;;;;;;;5007763;28;20072;-57
2023/09/18 04:51:41;;;;;;;13.60;11.57;;;;;;;;;;5014293;28;20793;-57
2023/09/18 04:54:06;;;;;;;16.27;10.88;;;;;;;;;;5006619;28;20606;-56
2023/09/18 04:56:32;;;;;;;14.17;11.23;;;;;;;;;;5023788;28;20009;-56
2023/09/18 04:58:58;;;;;;;12.63;10.88;;;;;;;;;;5000130;28;20257;-56
2023/09/18 05:01:24;;;;;;;16.88;11.90;;;;;;;;;;4999835;28;20121;-56
2023/09/18 05:03:49;;;;;;;14.15;11.27;;;;;;;;;;4995856;28;20025;-57
2023/09/18 05:06:16;;;;;;;15.13;11.23;;;;;;;;;;5027291;28;20025;-57
2023/09/18 05:08:41;;;;;;;16.42;11.90;;;;;;;;;;5006783;28;21987;-58
2023/09/18 05:11:06;;;;;;;17.43;12.47;;;;;;;;;;4991409;28;20049;-58
2023/09/18 05:13:31;;;;;;;16.63;12.68;;;;;;;;;;4984896;28;20036;-56
2023/09/18 05:15:58;;;;;;;16.73;12.07;;;;;;;;;;5003384;28;20464;-56
2023/09/18 05:18:23;;;;;;;17.95;12.00;;;;;;;;;;4992252;28;20297;-58
2023/09/18 05:20:48;;;;;;;19.53;12.17;;;;;;;;;;4992120;28;20046;-57
2023/09/18 05:23:14;;;;;;;17.73;12.87;;;;;;;;;;4991055;28;20391;-57
2023/09/18 05:25:41;;;;;;;17.70;12.48;;;;;;;;;;4994444;28;20177;-57
2023/09/18 05:28:07;;;;;;;16.92;11.77;;;;;;;;;;4988854;28;20470;-58
2023/09/18 05:30:34;;;;;;;17.27;12.45;;;;;;;;;;4990522;28;20064;-57
2023/09/18 05:33:05;;;;;;;16.75;12.50;;;;;;;;;;4990688;28;20447;-54
2023/09/18 05:35:31;;;;;;;15.63;12.50;;;;;;;;;;4992217;28;20042;-57
2023/09/18 05:37:58;;;;;;;16.77;12.63;;;;;;;;;;4993330;28;20049;-57
2023/09/18 05:40:26;;;;;;;18.05;13.80;;;;;;;;;;4990403;28;21571;-57
2023/09/18 05:42:51;;;;;;;18.27;13.25;;;;;;;;;;4987645;28;20542;-57
2023/09/18 05:45:17;;;;;;;19.73;13.13;;;;;;;;;;4993183;28;20038;-57
2023/09/18 05:47:42;;;;;;;19.27;13.45;;;;;;;;;;4989699;28;20061;-57
2023/09/18 05:50:14;;;;;;;15.95;12.73;;;;;;;;;;5007970;28;20057;-58
2023/09/18 05:52:40;;;;;;;16.48;12.95;;;;;;;;;;4990144;28;20495;-57
2023/09/18 05:55:06;;;;;;;16.80;13.07;;;;;;;;;;4994904;28;20120;-57
2023/09/18 05:57:32;;;;;;;17.25;12.73;;;;;;;;;;4989383;28;20289;-56
2023/09/18 05:59:57;;;;;;;18.53;13.83;;;;;;;;;;4987463;28;20409;-57
2023/09/18 06:02:23;;;;;;;17.52;13.25;;;;;;;;;;4987464;28;20328;-56
2023/09/18 06:04:48;;;;;;;20.75;13.68;;;;;;;;;;4992725;28;20458;-56
2023/09/18 06:07:13;;;;;;;18.25;13.27;;;;;;;;;;4987828;28;20619;-56
2023/09/18 06:09:39;;;;;;;20.23;14.07;;;;;;;;;;4990419;28;20030;-57
2023/09/18 06:12:05;;;;;;;18.60;12.88;;;;;;;;;;4981665;28;20048;-58
2023/09/18 06:14:31;;;;;;;17.25;13.07;;;;;;;;;;4987087;28;20026;-56
2023/09/18 06:16:56;;;;;;;18.98;13.70;;;;;;;;;;4991904;28;20045;-56
2023/09/18 06:19:22;;;;;;;18.77;14.27;;;;;;;;;;4986477;28;20443;-55
2023/09/18 06:21:47;;;;;;;19.45;14.30;;;;;;;;;;4988525;28;20325;-56
2023/09/18 06:24:13;;;;;;;18.47;13.83;;;;;;;;;;4989262;28;20129;-58
2023/09/18 06:26:39;;;;;;;19.63;14.40;;;;;;;;;;4988631;28;20297;-58
2023/09/18 06:29:04;;;;;;;19.75;13.50;;;;;;;;;;4989583;28;20042;-58
2023/09/18 06:31:30;;;;;;;17.80;13.25;;;;;;;;;;4987040;28;20054;-57
2023/09/18 06:33:56;;;;;;;19.77;13.55;;;;;;;;;;4990143;28;20026;-57
2023/09/18 06:36:21;;;;;;;17.88;13.25;;;;;;;;;;4983771;28;20045;-58
2023/09/18 06:38:46;;;;;;;17.63;13.55;;;;;;;;;;4987608;28;20046;-57
2023/09/18 06:41:12;;;;;;;16.75;13.27;;;;;;;;;;4988571;28;20065;-58
2023/09/18 06:43:37;;;;;;;17.70;13.98;;;;;;;;;;4977296;28;20049;-57
2023/09/18 06:46:02;;;;;;;17.80;12.47;;;;;;;;;;4988009;28;20263;-56
2023/09/18 06:48:32;;;;;;;17.73;12.82;;;;;;;;;;4985934;28;20317;-57
2023/09/18 06:50:57;;;;;;;18.52;12.18;;;;;;;;;;4988587;28;20490;-56
2023/09/18 06:53:22;;;;;;;17.40;13.07;;;;;;;;;;4988618;28;20039;-56
2023/09/18 06:55:48;;;;;;;17.13;12.87;;;;;;;;;;4988291;28;20037;-56
2023/09/18 06:58:13;;;;;;;16.30;12.05;;;;;;;;;;4988083;28;20195;-56
2023/09/18 07:00:39;;;;;;;19.60;13.02;;;;;;;;;;4984618;28;20502;-56
2023/09/18 07:03:04;;;;;;;20.17;13.10;;;;;;;;;;4986653;28;20469;-56
2023/09/18 07:05:29;;;;;;;16.90;12.38;;;;;;;;;;4985209;28;20030;-56
2023/09/18 07:07:57;;;;;;;17.57;12.60;;;;;;;;;;4988153;28;20260;-56
2023/09/18 07:10:22;;;;;;;17.48;12.07;;;;;;;;;;4988979;28;20022;-56
2023/09/18 07:12:47;;;;;;;16.33;11.83;;;;;;;;;;4994211;28;20031;-56
2023/09/18 07:15:12;;;;;;;17.67;12.30;;;;;;;;;;4992307;28;20281;-56
2023/09/18 07:17:37;;;;;;;17.30;12.52;;;;;;;;;;4990604;28;20129;-58
2023/09/18 07:20:13;;;;;;;18.33;11.60;;;;;;;;;;4994205;28;20077;-58
2023/09/18 07:22:38;;;;;;;18.48;11.95;;;;;;;;;;4990708;28;20543;-57
2023/09/18 07:25:04;;;;;;;16.23;11.73;;;;;;;;;;5004017;28;20033;-56
2023/09/18 07:27:29;;;;;;;13.98;11.23;;;;;;;;;;4990248;28;20360;-56
2023/09/18 07:29:55;;;;;;;18.87;11.73;;;;;;;;;;4994480;28;20028;-56
2023/09/18 07:32:20;;;;;;;15.50;10.90;;;;;;;;;;4977382;28;20475;-57
2023/09/18 07:34:47;;;;;;;15.97;11.43;;;;;;;;;;4988054;28;20411;-57
2023/09/18 07:37:12;;;;;;;15.82;11.75;;;;;;;;;;4993886;28;20702;-56
2023/09/18 07:39:39;;;;;;;16.97;11.93;;;;;;;;;;4987451;28;20346;-56
2023/09/18 07:42:04;;;;;;;14.65;11.25;;;;;;;;;;5002953;28;20288;-56
2023/09/18 07:44:30;;;;;;;17.30;11.82;;;;;;;;;;4992064;28;20034;-55
2023/09/18 07:46:55;;;;;;;16.48;11.82;;;;;;;;;;4997599;28;20074;-56
2023/09/18 07:49:20;;;;;;;17.77;12.30;;;;;;;;;;5011104;28;20422;-57
2023/09/18 07:51:45;;;;;;;18.03;12.23;;;;;;;;;;4994953;28;20276;-56
2023/09/18 07:54:13;;;;;;;15.53;12.13;;;;;;;;;;4992359;28;20532;-55
2023/09/18 07:56:38;;;;;;;17.40;12.15;;;;;;;;;;4991034;28;20058;-56
2023/09/18 07:59:05;;;;;;;15.73;11.60;;;;;;;;;;4988910;28;20515;-56
2023/09/18 08:01:31;;;;;;;15.07;12.10;;;;;;;;;;4989396;28;20289;-57
2023/09/18 08:03:59;;;;;;;18.98;12.27;;;;;;;;;;4991180;28;20096;-55
2023/09/18 08:06:26;;;;;;;16.25;12.07;;;;;;;;;;4991056;28;20050;-56
2023/09/18 08:08:51;;;;;;;16.88;12.60;;;;;;;;;;4992505;28;20475;-56
2023/09/18 08:11:16;;;;;;;19.25;13.10;;;;;;;;;;4990497;28;20022;-57
2023/09/18 08:13:42;;;;;;;16.63;11.97;;;;;;;;;;4989163;28;20408;-56
2023/09/18 08:16:08;;;;;;;15.80;12.30;;;;;;;;;;4978801;28;20308;-57
2023/09/18 08:18:33;;;;;;;18.70;12.35;;;;;;;;;;4992195;28;20029;-56
2023/09/18 08:21:00;;;;;;;18.10;12.32;;;;;;;;;;4997471;28;20046;-56
2023/09/18 08:23:25;;;;;;;18.92;12.23;;;;;;;;;;4993048;28;20565;-55
2023/09/18 08:25:51;;;;;;;17.70;12.20;;;;;;;;;;4995821;28;20034;-57
2023/09/18 08:28:16;;;;;;;16.73;12.20;;;;;;;;;;4990888;28;20383;-57
2023/09/18 08:30:46;;;;;;;19.33;12.05;;;;;;;;;;4989772;28;20050;-57
2023/09/18 08:33:12;;;;;;;15.30;11.80;;;;;;;;;;4989016;28;20049;-57
2023/09/18 08:35:37;;;;;;;17.20;12.43;;;;;;;;;;4991868;28;20033;-56
2023/09/18 08:38:03;;;;;;;16.60;11.77;;;;;;;;;;4990102;28;20295;-56
2023/09/18 08:40:29;;;;;;;16.30;11.60;;;;;;;;;;4993918;28;20076;-56
2023/09/18 08:42:55;;;;;;;17.87;12.40;;;;;;;;;;4992654;28;20121;-55
2023/09/18 08:45:33;;;;;;;15.23;11.35;;;;;;;;;;4990255;28;20042;-56
2023/09/18 08:47:59;;;;;;;17.20;11.82;;;;;;;;;;4993331;28;20050;-56
2023/09/18 08:50:25;;;;;;;18.35;12.20;;;;;;;;;;4990893;28;20581;-56
2023/09/18 08:52:50;;;;;;;15.95;11.43;;;;;;;;;;4983629;28;20118;-57
2023/09/18 08:55:16;;;;;;;16.23;11.35;;;;;;;;;;4990504;28;20058;-57
2023/09/18 08:57:41;;;;;;;15.00;11.52;;;;;;;;;;4993571;28;20651;-58
2023/09/18 09:00:07;;;;;;;15.85;11.25;;;;;;;;;;4989269;28;20414;-58
2023/09/18 09:02:36;;;;;;;15.13;11.65;;;;;;;;;;4991334;28;20121;-60
2023/09/18 09:05:01;;;;;;;17.98;11.65;;;;;;;;;;4994151;28;20521;-55
2023/09/18 09:07:28;;;;;;;15.35;11.15;;;;;;;;;;4997966;28;20046;-56
2023/09/18 09:09:54;;;;;;;16.67;11.05;;;;;;;;;;4991604;28;20564;-56
2023/09/18 09:12:39;;;;;;;16.13;10.37;;;;;;;;;;4990786;28;20038;-56
2023/09/18 09:15:04;;;;;;;19.55;11.05;;;;;;;;;;4990532;28;20281;-57
2023/09/18 09:17:30;;;;;;;16.85;11.13;;;;;;;;;;4988803;28;20504;-55
2023/09/18 09:20:05;;;;;;;15.88;11.15;;;;;;;;;;4987213;28;20029;-56
2023/09/18 09:22:31;;;;;;;15.77;10.40;;;;;;;;;;4992494;28;20092;-58
2023/09/18 09:24:59;;;;;;;15.90;10.00;;;;;;;;;;5006524;28;20129;-57
2023/09/18 09:27:24;;;;;;;14.53;10.10;;;;;;;;;;5006885;28;20180;-56
2023/09/18 09:29:59;;;;;;;13.33;9.33;;;;;;;;;;4988271;28;20285;-58
2023/09/18 09:32:24;;;;;;;14.35;10.05;;;;;;;;;;4990643;28;20944;-57
2023/09/18 09:34:50;;;;;;;13.23;9.52;;;;;;;;;;4989930;28;20095;-57
2023/09/18 09:37:15;;;;;;;14.25;9.30;;;;;;;;;;4988583;28;20057;-56
2023/09/18 09:39:50;;;;;;;12.67;9.20;;;;;;;;;;4990960;28;20038;-56
2023/09/18 09:42:18;;;;;;;15.07;9.05;;;;;;;;;;4991812;28;20304;-57
2023/09/18 09:44:43;;;;;;;12.55;8.48;;;;;;;;;;4988952;28;20486;-57
2023/09/18 09:47:09;;;;;;;14.95;9.63;;;;;;;;;;4988471;28;20302;-58
2023/09/18 09:49:44;;;;;;;13.07;8.67;;;;;;;;;;4978054;28;20081;-56
2023/09/18 09:52:21;;;;;;;12.07;8.50;;;;;;;;;;4990176;28;20034;-56
2023/09/18 09:54:46;;;;;;;11.55;7.97;;;;;;;;;;4988230;28;21746;-57
2023/09/18 09:57:12;;;;;;;13.70;8.10;;;;;;;;;;4990120;28;20441;-56
2023/09/18 09:59:37;;;;;;;13.53;8.80;;;;;;;;;;4987876;28;20017;-56
2023/09/18 10:02:02;;;;;;;13.97;8.40;;;;;;;;;;4990924;28;20037;-55
2023/09/18 10:04:28;;;;;;;11.73;8.37;;;;;;;;;;4991146;28;20553;-56
2023/09/18 10:06:57;;;;;;;12.98;8.75;;;;;;;;;;5005009;28;20735;-56
2023/09/18 10:09:22;;;;;;;10.02;7.53;;;;;;;;;;4991450;28;20042;-57
2023/09/18 10:11:55;;;;;;;11.75;7.40;;;;;;;;;;4988401;28;20030;-57
2023/09/18 10:14:22;;;;;;;11.73;8.02;;;;;;;;;;4990154;28;20061;-57
2023/09/18 10:16:52;;;;;;;11.32;8.32;;;;;;;;;;5005319;28;20030;-56
2023/09/18 10:19:28;;;;;;;11.55;8.27;;;;;;;;;;4992997;28;20045;-57
2023/09/18 10:22:11;;;;;;;10.80;7.53;;;;;;;;;;4987593;28;20656;-57
2023/09/18 10:24:41;;;;;;;12.93;7.65;;;;;;;;;;4987368;28;20081;-57
2023/09/18 10:27:06;;;;;;;;;;;;;;;;;;4992405;28;20402;-56
2023/09/18 10:29:35;;;;;;;9.27;7.20;;;;;;;;;;5000806;28;19929;-57
2023/09/18 10:32:01;;;;;;;10.13;7.35;;;;;;;;;;4986678;28;20038;-56
2023/09/18 10:34:27;;;;;;;12.90;7.93;;;;;;;;;;4985448;28;20465;-57
2023/09/18 10:36:53;;;;;;;8.95;7.22;;;;;;;;;;4986228;28;20050;-58
2023/09/18 10:39:24;;;;;;;9.95;7.43;;;;;;;;;;4986214;28;21012;-55
2023/09/18 10:41:52;;;;;;;11.35;7.35;;;;;;;;;;4989944;28;20054;-59
2023/09/18 10:44:20;;;;;;;11.25;7.18;;;;;;;;;;4987365;28;20490;-56
2023/09/18 10:46:48;;;;;;;10.57;7.28;;;;;;;;;;4977111;28;20022;-57
2023/09/18 10:49:14;;;;;;;11.43;6.78;;;;;;;;;;4988808;28;20077;-57
2023/09/18 10:51:42;;;;;;;10.35;7.00;;;;;;;;;;4990089;28;20562;-56
2023/09/18 10:54:10;;;;;;;10.50;6.85;;;;;;;;;;4986971;28;20026;-60
2023/09/18 10:56:35;;;;;;;8.32;6.22;;;;;;;;;;4985802;28;20406;-57
2023/09/18 10:59:02;;;;;;;9.93;6.55;;;;;;;;;;4985659;28;20046;-57
2023/09/18 11:01:28;;;;;;;9.57;6.15;;;;;;;;;;4985897;28;20498;-57
2023/09/18 11:03:57;;;;;;;8.45;6.35;;;;;;;;;;4989676;28;20300;-57
2023/09/18 11:06:26;;;;;;;7.65;6.03;;;;;;;;;;4986166;28;20045;-56
2023/09/18 11:08:53;;;;;;;9.07;5.68;;;;;;;;;;4980602;28;20211;-56
2023/09/18 11:11:21;;;;;;;9.40;5.78;;;;;;;;;;4989245;28;20030;-57
2023/09/18 11:13:49;;;;;;;7.78;5.47;;;;;;;;;;4985315;28;20057;-57
2023/09/18 11:16:15;;;;;;;7.05;5.07;;;;;;;;;;4971852;28;20386;-57
2023/09/18 11:18:40;;;;;;;6.43;5.33;;;;;;;;;;4984554;28;20026;-58
2023/09/18 11:21:12;;;;;;;8.18;5.68;;;;;;;;;;4984726;28;20691;-56
2023/09/18 11:23:40;;;;;;;8.07;5.13;;;;;;;;;;4980068;28;20050;-58
2023/09/18 11:26:07;;;;;;;8.25;5.28;;;;;;;;;;4986903;28;20034;-57
2023/09/18 11:28:32;;;;;;;7.15;4.95;;;;;;;;;;4988556;28;20054;-56
2023/09/18 11:31:02;;;;;;;7.03;5.07;;;;;;;;;;4985439;28;20038;-57
2023/09/18 11:33:40;;;;;;;7.20;5.00;;;;;;;;;;4986886;28;20199;-56
2023/09/18 11:36:06;;;;;;;6.20;5.10;;;;;;;;;;4985816;28;20138;-56
2023/09/18 11:38:33;;;;;;;8.30;5.03;;;;;;;;;;4985857;28;20030;-59
2023/09/18 11:41:19;;;;;;;5.63;4.55;;;;;;;;;;4961722;28;20103;-56
2023/09/18 11:43:44;;;;;;;5.53;4.65;;;;;;;;;;4986046;28;20041;-56
2023/09/18 11:46:10;;;;;;;6.07;4.60;;;;;;;;;;4984745;28;20042;-57
2023/09/18 11:48:36;;;;;;;5.97;4.45;;;;;;;;;;5001002;28;20042;-59
2023/09/18 11:51:04;;;;;;;7.63;4.68;;;;;;;;;;4989884;28;20246;-58
2023/09/18 11:53:30;;;;;;;5.97;4.18;;;;;;;;;;4988353;28;20093;-59
2023/09/18 11:55:55;;;;;;;5.43;4.40;;;;;;;;;;4987615;28;20046;-59
2023/09/18 11:58:23;;;;;;;6.78;4.82;;;;;;;;;;4991418;28;20103;-59
2023/09/18 12:00:48;;;;;;;5.97;4.05;;;;;;;;;;4989244;28;20569;-58
2023/09/18 12:03:16;;;;;;;6.95;4.38;;;;;;;;;;4984816;28;20041;-56
2023/09/18 12:05:42;;;;;;;5.75;4.32;;;;;;;;;;4985868;28;20080;-57
2023/09/18 12:08:07;;;;;;;6.22;4.60;;;;;;;;;;4986484;28;20137;-57
2023/09/18 12:10:32;;;;;;;6.63;4.33;;;;;;;;;;4986355;28;20102;-58
2023/09/18 12:12:57;;;;;;;7.78;4.45;;;;;;;;;;4986781;28;20108;-57
2023/09/18 12:15:24;;;;;;;5.10;4.07;;;;;;;;;;4985611;28;20040;-57
2023/09/18 12:17:53;;;;;;;7.60;4.25;;;;;;;;;;4986132;28;20430;-56
2023/09/18 12:20:21;;;;;;;8.23;4.38;;;;;;;;;;4984406;28;20050;-57
2023/09/18 12:22:47;;;;;;;8.38;4.30;;;;;;;;;;4989454;28;20049;-57
2023/09/18 12:25:13;;;;;;;5.20;4.13;;;;;;;;;;4987906;28;20042;-56
2023/09/18 12:27:39;;;;;;;5.10;3.75;;;;;;;;;;4988530;28;20550;-57
2023/09/18 12:30:04;;;;;;;5.47;3.78;;;;;;;;;;4986521;28;20130;-57
2023/09/18 12:32:30;;;;;;;4.50;3.90;;;;;;;;;;4988787;28;20302;-57
2023/09/18 12:34:55;;;;;;;7.55;4.20;;;;;;;;;;5001850;28;20042;-56
2023/09/18 12:37:20;;;;;;;5.17;3.80;;;;;;;;;;4990490;28;20516;-57
2023/09/18 12:39:46;;;;;;;7.90;4.47;;;;;;;;;;4987570;28;20351;-57
2023/09/18 12:42:11;;;;;;;6.40;4.15;;;;;;;;;;4986011;28;21844;-57
2023/09/18 12:44:36;;;;;;;8.80;4.40;;;;;;;;;;4991913;28;20038;-57
2023/09/18 12:47:03;;;;;;;5.23;4.43;;;;;;;;;;4986624;28;20038;-56
2023/09/18 12:49:30;;;;;;;7.13;4.32;;;;;;;;;;5003130;28;20701;-57
2023/09/18 12:51:58;;;;;;;6.25;4.30;;;;;;;;;;4987930;28;20042;-55
2023/09/18 12:54:39;;;;;;;7.72;4.45;;;;;;;;;;5001637;28;20068;-56
2023/09/18 12:57:06;;;;;;;7.20;4.22;;;;;;;;;;4988998;28;20129;-56
2023/09/18 12:59:31;;;;;;;6.88;4.38;;;;;;;;;;4980841;28;20155;-56
2023/09/18 13:01:56;;;;;;;6.03;3.80;;;;;;;;;;4987010;28;20042;-57
2023/09/18 13:04:22;;;;;;;7.00;4.27;;;;;;;;;;4988361;28;20050;-56
2023/09/18 13:06:47;;;;;;;6.38;4.13;;;;;;;;;;4986231;28;20290;-56
2023/09/18 13:09:16;;;;;;;6.77;4.43;;;;;;;;;;4987768;28;20050;-57
2023/09/18 13:11:57;;;;;;;8.73;4.67;;;;;;;;;;4987334;28;20359;-57
2023/09/18 13:14:23;;;;;;;5.50;4.25;;;;;;;;;;4990893;28;20197;-56
2023/09/18 13:16:48;;;;;;;8.50;4.30;;;;;;;;;;4986901;28;20049;-56
2023/09/18 13:19:13;;;;;;;7.40;4.40;;;;;;;;;;4990882;28;20533;-57
2023/09/18 13:21:45;;;;;;;5.90;4.20;;;;;;;;;;5002511;28;20469;-56
2023/09/18 13:24:23;;;;;;;5.93;4.03;;;;;;;;;;4989162;28;20452;-57
2023/09/18 13:26:48;;;;;;;6.80;4.35;;;;;;;;;;4989297;28;20137;-57
2023/09/18 13:29:14;;;;;;;7.90;4.45;;;;;;;;;;4988285;28;20144;-60
2023/09/18 13:31:39;;;;;;;5.73;4.20;;;;;;;;;;4988156;28;20043;-56
2023/09/18 13:34:05;;;;;;;5.90;4.23;;;;;;;;;;4988671;28;20308;-59
2023/09/18 13:36:30;;;;;;;6.07;4.28;;;;;;;;;;4988011;28;20293;-59
2023/09/18 13:38:56;;;;;;;6.33;4.03;;;;;;;;;;4989655;28;20045;-61
2023/09/18 13:41:22;;;;;;;5.75;4.13;;;;;;;;;;4984644;28;21099;-58
2023/09/18 13:43:48;;;;;;;6.07;4.27;;;;;;;;;;4990261;28;20087;-56
2023/09/18 13:46:14;;;;;;;7.45;4.07;;;;;;;;;;4991009;28;20105;-57
2023/09/18 13:48:39;;;;;;;5.43;4.10;;;;;;;;;;4989419;28;20053;-56
2023/09/18 13:51:04;;;;;;;8.02;4.22;;;;;;;;;;4987192;28;20038;-56
2023/09/18 13:53:29;;;;;;;8.47;4.20;;;;;;;;;;4988366;28;20121;-57
2023/09/18 13:55:56;;;;;;;6.00;4.00;;;;;;;;;;4987308;28;20141;-58
2023/09/18 13:58:21;;;;;;;6.18;4.30;;;;;;;;;;4986761;28;20088;-56
2023/09/18 14:00:47;;;;;;;5.85;4.18;;;;;;;;;;4986935;28;20030;-57
2023/09/18 14:03:15;;;;;;;6.32;4.53;;;;;;;;;;4988344;28;20235;-57
2023/09/18 14:05:40;;;;;;;7.00;4.18;;;;;;;;;;4987828;28;20035;-56
2023/09/18 14:08:05;;;;;;;4.88;4.00;;;;;;;;;;4986035;28;20108;-56
2023/09/18 14:10:31;;;;;;;6.63;3.95;;;;;;;;;;4987055;28;20104;-58
2023/09/18 14:12:57;;;;;;;5.97;3.80;;;;;;;;;;4986579;28;20507;-57
2023/09/18 14:15:23;;;;;;;8.27;4.30;;;;;;;;;;4986707;28;20126;-57
2023/09/18 14:17:49;;;;;;;7.63;4.15;;;;;;;;;;4988204;28;20116;-58
2023/09/18 14:20:15;;;;;;;5.55;3.78;;;;;;;;;;4986326;28;20048;-57
2023/09/18 14:22:40;;;;;;;7.38;3.88;;;;;;;;;;4987015;28;20073;-57